Latest Coastal Weather Observations for Shark Bay Airport

IDW60701

Issued at 9:43 am WST Tuesday 24 October 2017 (issued every 10 minutes, with the page automatically refreshed every 10 minutes)

About coastal observations | Map of coastal stations | Coastal observations for WA | Marine services | Other Formats
Station Details ID: 006105 Name: SHARK BAY AIRPORT Lat: -25.89 Lon: 113.58 Height: 33.8 m
Data from the previous 72 hours. | See also: Recent months at Shark Bay Airport
Date/Time
WST
Temp
°C
Wind Pressure Rain since
9am
mm
Weather Cloud Vis
km
Sea
Height
m
Swell
Dir  Spd
kts
Gust
kts
hPa Trend Height
m
Period
s
Dir
24/09:30am 23.2 SSE 14 19 1017.6 - 0.0 - - - - - - -
24/09:00am 22.1 S 14 22 1017.8 - 0.0 - - - - - - -
24/08:30am 21.1 SSE 13 19 1017.6 - 0.0 - - - - - - -
24/08:00am 20.4 SE 12 18 1017.5 - 0.0 - - - - - - -
24/07:30am 19.5 SE 11 17 1017.4 - 0.0 - - - - - - -
24/07:00am 18.6 SE 11 16 1017.3 - 0.0 - - - - - - -
24/06:30am 17.9 SE 9 15 1017.0 - 0.0 - - - - - - -
24/06:00am 16.4 SE 5 7 1016.8 - 0.0 - - - - - - -
24/05:30am 16.8 SE 8 11 1016.6 - 0.0 - - - - - - -
24/05:00am 17.4 SE 9 13 1016.3 - 0.0 - - - - - - -
24/04:30am 17.6 SSE 9 13 1016.2 - 0.0 - - - - - - -
24/04:00am 18.0 SSE 10 14 1016.2 - 0.0 - - - - - - -
24/03:30am 18.2 SSE 7 10 1016.1 - 0.0 - - - - - - -
24/03:00am 18.2 S 9 14 1016.0 - 0.0 - - - - - - -
24/02:30am 18.2 S 10 14 1016.0 - 0.0 - - - - - - -
24/02:00am 17.8 S 8 12 1016.0 - 0.0 - - - - - - -
24/01:30am 17.6 S 7 9 1016.0 - 0.0 - - - - - - -
24/01:00am 17.3 S 7 10 1016.2 - 0.0 - - - - - - -
24/12:30am 17.3 S 9 12 1016.4 - 0.0 - - - - - - -
24/12:00am 17.5 S 10 14 1016.4 - 0.0 - - - - - - -
 
Date/Time
WST
Temp
°C
Wind Pressure Rain since
9am
mm
Weather Cloud Vis
km
Sea
Height
m
Swell
Dir  Spd
kts
Gust
kts
hPa Trend Height
m
Period
s
Dir
23/11:30pm 17.7 S 11 16 1016.5 - 0.0 - - - - - - -
23/11:00pm 17.8 S 10 13 1016.6 - 0.0 - - - - - - -
23/10:30pm 18.0 S 10 13 1016.6 - 0.0 - - - - - - -
23/10:00pm 18.1 S 10 15 1016.6 - 0.0 - - - - - - -
23/09:30pm 18.3 S 13 18 1016.6 - 0.0 - - - - - - -
23/09:00pm 18.5 SSW 10 14 1016.7 - 0.0 - - - - - - -
23/08:30pm 18.6 S 11 17 1016.3 - 0.0 - - - - - - -
23/08:00pm 19.0 SSW 12 19 1016.0 - 0.0 - - - - - - -
23/07:30pm 19.3 S 12 17 1015.7 - 0.0 - - - - - - -
23/07:00pm 19.8 S 13 17 1015.5 - 0.0 - - - - - - -
23/06:30pm 20.5 S 15 21 1015.3 - 0.0 - - - - - - -
23/06:00pm 21.6 S 15 21 1015.3 - 0.0 - - - - - - -
23/05:30pm 22.7 SSW 17 22 1015.0 - 0.0 - - - - - - -
23/05:00pm 23.5 SW 17 23 1014.8 - 0.0 - - - - - - -
23/04:30pm 24.4 SW 17 23 1014.7 - 0.0 - - - - - - -
23/04:00pm 25.3 SW 15 21 1014.4 - 0.0 - - - - - - -
23/03:30pm 25.5 SW 15 21 1014.4 - 0.0 - - - - - - -
23/03:00pm 26.5 SW 15 22 1014.3 - 0.0 - - - - - - -
23/02:30pm 27.7 SW 13 19 1014.3 - 0.0 - - - - - - -
23/02:00pm 27.6 SW 14 17 1014.5 - 0.0 - - - - - - -
23/01:30pm 28.1 SSW 13 18 1014.5 - 0.0 - - - - - - -
23/01:00pm 27.7 SSW 11 17 1014.9 - 0.0 - - - - - - -
23/12:30pm 27.2 SSW 13 19 1015.1 - 0.0 - - - - - - -
23/12:00pm 26.0 S 12 17 1015.3 - 0.0 - - - - - - -
23/11:30am 25.7 S 11 17 1015.4 - 0.0 - - - - - - -
23/11:00am 25.3 SSE 12 17 1015.8 - 0.0 - - - - - - -
23/10:30am 24.5 S 11 17 1016.0 - 0.0 - - - - - - -
23/10:00am 24.4 SSE 12 19 1016.5 - 0.0 - - - - - - -
23/09:30am 23.2 S 13 20 1016.5 - 0.0 - - - - - - -
23/09:00am 23.0 S 12 19 1016.3 - 0.0 - - - - - - -
23/08:30am 21.9 SSE 14 21 1016.2 - 0.0 - - - - - - -
23/08:00am 21.0 SSE 12 17 1016.1 - 0.0 - - - - - - -
23/07:30am 20.6 S 11 16 1015.8 - 0.0 - - - - - - -
23/07:00am 20.1 S 12 18 1015.6 - 0.0 - - - - - - -
23/06:30am 19.7 S 11 14 1015.6 - 0.0 - - - - - - -
23/06:00am 19.3 S 9 14 1015.4 - 0.0 - - - - - - -
23/05:30am 19.3 S 10 15 1015.2 - 0.0 - - - - - - -
23/05:00am 19.4 S 11 15 1015.0 - 0.0 - - - - - - -
23/04:30am 19.4 S 11 14 1014.9 - 0.0 - - - - - - -
23/04:00am 19.4 S 9 13 1014.8 - 0.0 - - - - - - -
23/03:30am 19.4 S 10 14 1014.7 - 0.0 - - - - - - -
23/03:00am 19.4 SSW 11 16 1014.6 - 0.0 - - - - - - -
23/02:30am 19.2 S 9 14 1014.6 - 0.0 - - - - - - -
23/02:00am 19.4 S 10 17 1014.6 - 0.0 - - - - - - -
23/01:30am 19.5 S 13 19 1014.7 - 0.0 - - - - - - -
23/01:00am 19.3 SSW 13 17 1014.9 - 0.0 - - - - - - -
23/12:30am 19.3 S 13 18 1015.2 - 0.0 - - - - - - -
23/12:00am 19.5 SSW 11 17 1015.2 - 0.0 - - - - - - -
 
Date/Time
WST
Temp
°C
Wind Pressure Rain since
9am
mm
Weather Cloud Vis
km
Sea
Height
m
Swell
Dir  Spd
kts
Gust
kts
hPa Trend Height
m
Period
s
Dir
22/11:30pm 19.2 S 11 16 1015.3 - 0.0 - - - - - - -
22/11:00pm 19.2 SSW 13 19 1015.4 - 0.0 - - - - - - -
22/10:30pm 19.2 SSW 14 19 1015.5 - 0.0 - - - - - - -
22/10:00pm 19.1 SSW 15 22 1015.6 - 0.0 - - - - - - -
22/09:30pm 19.3 SSW 14 19 1015.6 - 0.0 - - - - - - -
22/09:00pm 19.2 SSW 13 18 1015.5 - 0.0 - - - - - - -
22/08:30pm 19.1 SSW 12 16 1015.2 - 0.0 - - - - - - -
22/08:00pm 19.4 SSW 12 17 1015.1 - 0.0 - - - - - - -
22/07:30pm 19.8 SSW 14 17 1014.7 - 0.0 - - - - - - -
22/07:00pm 20.2 SW 13 19 1014.4 - 0.0 - - - - - - -
22/06:30pm 20.8 SW 13 19 1014.2 - 0.0 - - - - - - -
22/06:00pm 21.5 SW 15 20 1013.8 - 0.0 - - - - - - -
22/05:30pm 22.3 SW 15 20 1013.7 - 0.0 - - - - - - -
22/05:00pm 23.2 SW 14 19 1013.5 - 0.0 - - - - - - -
22/04:30pm 23.7 SW 15 19 1013.4 - 0.0 - - - - - - -
22/04:00pm 24.3 SW 15 21 1013.3 - 0.0 - - - - - - -
22/03:30pm 24.8 SW 14 18 1013.5 - 0.0 - - - - - - -
22/03:00pm 25.0 SW 14 20 1013.6 - 0.0 - - - - - - -
22/02:30pm 25.8 WSW 12 16 1013.8 - 0.0 - - - - - - -
22/02:00pm 25.6 SW 10 15 1013.8 - 0.0 - - - - - - -
22/01:30pm 26.2 WSW 8 13 1013.8 - 0.0 - - - - - - -
22/01:00pm 25.9 WSW 7 13 1013.9 - 0.0 - - - - - - -
22/12:30pm 25.5 WSW 8 14 1014.1 - 0.0 - - - - - - -
22/12:00pm 25.3 WSW 9 14 1014.2 - 0.0 - - - - - - -
22/11:30am 24.4 SW 8 12 1014.4 - 0.0 - - - - - - -
22/11:00am 24.4 WSW 8 11 1014.7 - 0.0 - - - - - - -
22/10:30am 24.3 SW 9 13 1015.0 - 0.0 - - - - - - -
22/10:00am 23.8 SW 10 14 1015.1 - 0.0 - - - - - - -
22/09:30am 23.0 SW 9 16 1015.0 - 0.0 - - - - - - -
22/09:00am 21.9 SW 9 12 1015.0 - 0.0 - - - - - - -
22/08:30am 21.4 SW 9 13 1014.9 - 0.0 - - - - - - -
22/08:00am 20.6 SW 10 14 1014.6 - 0.0 - - - - - - -
22/07:30am 20.3 SW 10 14 1014.5 - 0.0 - - - - - - -
22/07:00am 20.1 SW 9 13 1014.3 - 0.0 - - - - - - -
22/06:30am 19.8 SW 9 13 1014.1 - 0.0 - - - - - - -
22/06:00am 19.7 SW 8 12 1013.9 - 0.0 - - - - - - -
22/05:30am 19.4 SW 7 11 1013.6 - 0.0 - - - - - - -
22/05:00am 19.4 SW 9 12 1013.3 - 0.0 - - - - - - -
22/04:30am 19.1 SW 9 11 1013.3 - 0.0 - - - - - - -
22/04:00am 18.8 SW 7 12 1013.3 - 0.0 - - - - - - -
22/03:30am 18.8 SW 7 11 1013.4 - 0.0 - - - - - - -
22/03:00am 18.8 SW 7 11 1013.5 - 0.0 - - - - - - -
22/02:30am 19.0 SW 9 13 1013.6 - 0.0 - - - - - - -
22/02:00am 19.3 WSW 10 14 1013.8 - 0.0 - - - - - - -
22/01:30am 19.3 WSW 11 14 1013.9 - 0.0 - - - - - - -
22/01:00am 19.4 SW 11 15 1014.3 - 0.0 - - - - - - -
22/12:30am 19.1 WSW 11 16 1014.7 - 0.0 - - - - - - -
22/12:00am 18.8 W 5 8 1014.8 - 0.0 - - - - - - -
 
Date/Time
WST
Temp
°C
Wind Pressure Rain since
9am
mm
Weather Cloud Vis
km
Sea
Height
m
Swell
Dir  Spd
kts
Gust
kts
hPa Trend Height
m
Period
s
Dir
21/11:30pm 18.6 WSW 10 13 1014.9 - 0.0 - - - - - - -
21/11:00pm 18.7 NNW 3 5 1015.2 - 0.0 - - - - - - -
21/10:30pm 18.7 WSW 5 8 1015.1 - 0.0 - - - - - - -
21/10:00pm 19.0 WSW 9 11 1015.3 - 0.0 - - - - - - -
21/09:30pm 19.4 WSW 12 14 1015.4 - 0.0 - - - - - - -
21/09:00pm 19.4 WSW 10 12 1015.4 - 0.0 - - - - - - -
21/08:30pm 19.5 WSW 10 12 1015.3 - 0.0 - - - - - - -
21/08:00pm 19.6 WSW 8 11 1015.1 - 0.0 - - - - - - -
21/07:30pm 20.0 WSW 11 14 1015.0 - 0.0 - - - - - - -
21/07:00pm 20.3 WSW 12 14 1014.6 - 0.0 - - - - - - -
21/06:30pm 20.8 WSW 11 17 1014.4 - 0.0 - - - - - - -
21/06:00pm 21.7 WSW 13 17 1014.1 - 0.0 - - - - - - -
21/05:30pm 22.4 WSW 15 18 1014.0 - 0.0 - - - - - - -
21/05:00pm 23.5 WSW 14 19 1014.0 - 0.0 - - - - - - -
21/04:30pm 24.4 WSW 16 20 1013.9 - 0.0 - - - - - - -
21/04:00pm 25.2 WSW 14 17 1013.9 - 0.0 - - - - - - -
21/03:30pm 25.6 W 14 17 1014.1 - 0.0 - - - - - - -
21/03:00pm 25.6 W 15 19 1014.2 - 0.0 - - - - - - -
21/02:30pm 26.3 W 15 19 1014.5 - 0.0 - - - - - - -
21/02:00pm 26.5 W 15 19 1014.8 - 0.0 - - - - - - -
21/01:30pm 26.2 W 14 19 1015.0 - 0.0 - - - - - - -
21/01:00pm 25.7 WSW 14 18 1015.3 - 0.0 - - - - - - -
21/12:30pm 26.5 W 14 18 1015.4 - 0.0 - - - - - - -
21/12:00pm 25.0 WSW 13 17 1015.6 - 0.0 - - - - - - -
21/11:30am 24.4 W 12 14 1015.7 - 0.0 - - - - - - -
21/11:00am 25.7 W 10 14 1015.9 - 0.0 - - - - - - -
21/10:30am 25.9 W 9 13 1016.3 - 0.0 - - - - - - -
21/10:00am 24.5 W 10 13 1016.3 - 0.0 - - - - - - -

Other Formats:

Comma delimited format used in spreadsheet applications
http://www.bom.gov.au/fwo/IDW60701/IDW60701.95402.axf

JavaScript Object Notation format (JSON) in row-major order
http://www.bom.gov.au/fwo/IDW60701/IDW60701.95402.json